createdAt,value
2022-09-05T00:02:41.706Z,2.08
2022-09-05T00:05:29.492Z,2.08
2022-09-05T00:08:07.535Z,2.20
2022-09-05T00:11:40.001Z,2.40
2022-09-05T00:13:43.644Z,2.20
2022-09-05T00:24:22.750Z,1.88
2022-09-05T00:24:37.911Z,2.10
2022-09-05T00:25:31.730Z,2.20
2022-09-05T00:28:26.081Z,2.00
2022-09-05T00:31:53.610Z,2.33
2022-09-05T00:34:35.973Z,2.20
2022-09-05T00:37:32.169Z,1.92
2022-09-05T00:40:20.678Z,2.50
2022-09-05T00:42:53.613Z,2.03
2022-09-05T00:45:29.502Z,2.35
2022-09-05T00:48:07.308Z,2.47
2022-09-05T00:50:46.298Z,1.90
2022-09-05T00:53:21.421Z,2.10
2022-09-05T00:56:04.304Z,2.10
2022-09-05T00:58:52.312Z,2.13
2022-09-05T01:01:31.264Z,2.13
2022-09-05T01:04:17.892Z,2.17
2022-09-05T01:07:05.026Z,2.28
2022-09-05T01:09:50.025Z,2.15
2022-09-05T01:12:50.118Z,2.17
2022-09-05T01:15:33.874Z,2.40
2022-09-05T01:18:28.076Z,2.38
2022-09-05T01:21:48.154Z,2.25
2022-09-05T01:24:46.815Z,2.42
2022-09-05T01:28:54.991Z,2.17
2022-09-05T01:30:47.430Z,2.20
2022-09-05T01:33:26.520Z,2.30
2022-09-05T01:36:18.481Z,2.30
2022-09-05T01:39:51.586Z,2.13
2022-09-05T01:41:58.588Z,2.35
2022-09-05T01:44:42.968Z,2.10
2022-09-05T01:47:30.963Z,2.33
2022-09-05T01:50:10.463Z,2.30
2022-09-05T01:52:57.742Z,2.40
2022-09-05T01:56:05.154Z,2.35
2022-09-05T01:58:50.778Z,2.50
2022-09-05T02:01:32.600Z,2.30
2022-09-05T02:04:21.868Z,2.25
2022-09-05T02:07:15.195Z,2.15
2022-09-05T02:10:13.351Z,2.20
2022-09-05T02:13:01.908Z,1.95
2022-09-05T02:15:42.926Z,2.38
2022-09-05T02:18:25.102Z,2.42
2022-09-05T02:20:58.364Z,2.30
2022-09-05T02:23:40.939Z,2.10
2022-09-05T02:26:17.797Z,2.20
2022-09-05T02:28:55.349Z,2.17
2022-09-05T02:31:31.502Z,2.38
2022-09-05T02:34:09.386Z,2.33
2022-09-05T02:36:44.552Z,2.50
2022-09-05T02:45:04.248Z,2.28
2022-09-05T02:45:13.249Z,2.15
2022-09-05T02:45:26.686Z,2.10
2022-09-05T02:48:15.190Z,2.30
2022-09-05T02:57:27.276Z,1.95
2022-09-05T02:57:39.946Z,2.00
2022-09-05T02:57:46.251Z,2.13
2022-09-05T03:00:02.688Z,2.10
2022-09-05T03:02:38.546Z,2.10
2022-09-05T03:05:14.446Z,1.83
2022-09-05T03:08:09.057Z,2.30
2022-09-05T03:11:08.577Z,2.25
2022-09-05T03:14:28.129Z,2.35
2022-09-05T03:17:29.700Z,2.30
2022-09-05T03:20:41.816Z,2.28
2022-09-05T03:24:00.768Z,1.92
2022-09-05T03:26:57.652Z,2.00
2022-09-05T03:30:12.189Z,2.00
2022-09-05T03:33:08.102Z,2.00
2022-09-05T03:36:09.912Z,1.98
2022-09-05T03:39:23.612Z,2.15
2022-09-05T03:42:31.772Z,2.10
2022-09-05T03:45:36.357Z,2.10
2022-09-05T03:48:32.598Z,2.10
2022-09-05T03:56:58.247Z,1.95
2022-09-05T03:57:11.219Z,2.08
2022-09-05T03:58:08.829Z,2.05
2022-09-05T04:01:10.821Z,2.00
2022-09-05T04:08:14.024Z,2.15
2022-09-05T04:09:51.190Z,2.03
2022-09-05T04:12:27.333Z,2.03
2022-09-05T04:15:01.404Z,2.03
2022-09-05T04:17:37.297Z,2.15
2022-09-05T04:20:13.419Z,2.30
2022-09-05T04:23:05.494Z,2.33
2022-09-05T04:25:49.552Z,2.20
2022-09-05T04:28:53.442Z,2.20
2022-09-05T04:31:36.477Z,2.00
2022-09-05T04:34:18.089Z,1.92
2022-09-05T04:37:01.771Z,2.20
2022-09-05T04:39:35.043Z,2.45
2022-09-05T04:42:17.623Z,2.20
2022-09-05T04:47:21.815Z,2.03
2022-09-05T04:49:58.892Z,2.50
2022-09-05T04:52:53.861Z,2.40
2022-09-05T04:55:26.987Z,2.22
2022-09-05T04:57:59.857Z,2.47
2022-09-05T05:05:58.506Z,2.55
2022-09-05T05:06:14.486Z,2.20
2022-09-05T05:06:42.286Z,2.47
2022-09-05T05:09:21.825Z,2.40
2022-09-05T05:18:01.502Z,2.80
2022-09-05T05:18:07.633Z,2.38
2022-09-05T05:18:10.720Z,2.22
2022-09-05T05:20:42.766Z,2.63
2022-09-05T05:23:16.228Z,2.80
2022-09-05T05:25:52.085Z,2.67
2022-09-05T05:28:29.988Z,2.50
2022-09-05T05:31:10.414Z,2.53
2022-09-05T05:33:41.284Z,2.47
2022-09-05T05:36:19.332Z,2.80
2022-09-05T05:38:53.669Z,2.60
2022-09-05T05:41:26.766Z,2.92
2022-09-05T05:43:55.201Z,3.40
2022-09-05T05:46:33.998Z,2.75
2022-09-05T05:49:16.571Z,2.75
2022-09-05T05:52:02.621Z,2.88
2022-09-05T05:54:43.594Z,2.88
2022-09-05T05:57:41.539Z,2.85
2022-09-05T06:00:27.692Z,2.90
2022-09-05T06:03:33.117Z,2.85
2022-09-05T06:06:22.932Z,3.00
2022-09-05T06:13:14.626Z,2.88
2022-09-05T06:15:02.949Z,2.53
2022-09-05T06:16:41.564Z,2.50
2022-09-05T06:20:45.934Z,2.60
2022-09-05T06:23:39.133Z,2.42
2022-09-05T06:26:42.518Z,2.47
2022-09-05T06:29:37.980Z,2.27
2022-09-05T06:32:22.115Z,2.40
2022-09-05T06:35:20.228Z,2.30
2022-09-05T06:38:03.415Z,2.50
2022-09-05T06:40:37.715Z,2.38
2022-09-05T06:43:18.986Z,2.40
2022-09-05T06:46:52.823Z,2.50
2022-09-05T06:49:30.161Z,2.35
2022-09-05T06:52:32.197Z,2.35
2022-09-05T06:55:38.916Z,2.33
2022-09-05T06:58:42.278Z,2.28
2022-09-05T07:01:13.722Z,2.20
2022-09-05T07:05:21.776Z,2.10
2022-09-05T07:07:06.824Z,2.30
2022-09-05T07:09:52.357Z,1.98
2022-09-05T07:12:29.984Z,2.10
2022-09-05T07:15:15.042Z,2.10
2022-09-05T07:18:10.179Z,2.00
2022-09-05T07:21:17.781Z,2.00
2022-09-05T07:24:09.966Z,1.85
2022-09-05T07:26:54.007Z,1.80
2022-09-05T07:29:29.927Z,2.22
2022-09-05T07:32:02.299Z,1.98
2022-09-05T07:34:32.585Z,2.00
2022-09-05T07:37:15.057Z,1.92
2022-09-05T07:39:50.280Z,2.50
2022-09-05T07:42:26.817Z,2.10
2022-09-05T07:44:59.106Z,2.00
2022-09-05T07:51:00.701Z,1.88
2022-09-05T07:56:50.494Z,1.80
2022-09-05T07:57:03.722Z,1.80
2022-09-05T07:58:40.143Z,1.90
2022-09-05T08:01:10.661Z,1.90
2022-09-05T08:03:40.870Z,1.70
2022-09-05T08:06:14.955Z,1.77
2022-09-05T08:09:59.522Z,1.80
2022-09-05T08:12:02.837Z,1.85
2022-09-05T08:14:45.951Z,2.00
2022-09-05T08:17:19.396Z,1.90
2022-09-05T08:19:58.862Z,1.92
2022-09-05T08:22:52.101Z,1.85
2022-09-05T08:25:36.317Z,2.20
2022-09-05T08:28:22.669Z,1.58
2022-09-05T08:30:59.933Z,1.98
2022-09-05T08:33:34.409Z,1.92
2022-09-05T08:36:10.278Z,2.00
2022-09-05T08:38:41.246Z,2.05
2022-09-05T08:41:16.650Z,1.70
2022-09-05T08:46:36.519Z,1.92
2022-09-05T08:46:52.856Z,1.83
2022-09-05T08:49:50.455Z,1.60
2022-09-05T08:52:31.781Z,1.70
2022-09-05T08:55:13.791Z,1.95
2022-09-05T09:00:36.146Z,1.70
2022-09-05T09:03:18.651Z,1.85
2022-09-05T09:06:22.066Z,1.73
2022-09-05T09:09:15.832Z,1.42
2022-09-05T09:11:52.681Z,1.48
2022-09-05T09:14:47.380Z,1.65
2022-09-05T09:17:26.316Z,1.58
2022-09-05T09:20:12.956Z,1.80
2022-09-05T09:22:51.353Z,2.10
2022-09-05T09:25:27.880Z,1.67
2022-09-05T09:28:49.876Z,1.42
2022-09-05T09:31:30.158Z,1.30
2022-09-05T09:34:19.671Z,1.33
2022-09-05T09:37:08.511Z,1.67
2022-09-05T09:39:52.001Z,1.58
2022-09-05T09:42:34.618Z,1.90
2022-09-05T09:45:27.809Z,1.70
2022-09-05T09:48:26.950Z,1.73
2022-09-05T09:51:26.946Z,1.60
2022-09-05T09:54:09.958Z,1.70
2022-09-05T09:57:22.559Z,1.77
2022-09-05T10:00:12.146Z,1.80
2022-09-05T10:06:43.731Z,1.80
2022-09-05T10:10:46.045Z,1.70
2022-09-05T10:10:46.045Z,1.63
2022-09-05T10:12:30.018Z,1.55
2022-09-05T10:15:27.769Z,1.73
2022-09-05T10:18:25.349Z,1.58
2022-09-05T10:21:16.489Z,1.77
2022-09-05T10:27:13.041Z,1.40
2022-09-05T10:29:46.853Z,1.60
2022-09-05T10:35:06.039Z,1.70
2022-09-05T10:35:27.513Z,1.80
2022-09-05T10:38:10.715Z,1.70
2022-09-05T10:41:21.600Z,1.58
2022-09-05T10:43:36.305Z,1.70
2022-09-05T10:46:39.706Z,1.80
2022-09-05T10:49:09.508Z,1.60
2022-09-05T10:51:51.824Z,1.58
2022-09-05T10:54:38.509Z,1.77
2022-09-05T10:57:20.687Z,1.50
2022-09-05T11:02:24.032Z,1.40
2022-09-05T11:02:58.560Z,1.60
2022-09-05T11:05:28.757Z,1.40
2022-09-05T11:08:08.930Z,1.50
2022-09-05T11:10:40.854Z,1.40
2022-09-05T11:13:17.990Z,1.63
2022-09-05T11:16:04.954Z,1.60
2022-09-05T11:18:57.442Z,1.30
2022-09-05T11:21:42.519Z,1.30
2022-09-05T11:24:27.632Z,1.30
2022-09-05T11:27:25.068Z,1.20
2022-09-05T11:29:51.646Z,1.30
2022-09-05T11:39:39.537Z,1.40
2022-09-05T11:39:53.972Z,1.30
2022-09-05T11:40:04.229Z,1.20
2022-09-05T11:41:54.930Z,1.00
2022-09-05T11:44:33.410Z,1.13
2022-09-05T11:47:43.498Z,1.20
2022-09-05T11:50:43.508Z,1.30
2022-09-05T11:53:44.146Z,1.40
2022-09-05T11:56:48.060Z,1.30
2022-09-05T11:59:44.997Z,1.23
2022-09-05T12:02:34.674Z,1.10
2022-09-05T12:05:50.129Z,1.30
2022-09-05T12:08:36.792Z,1.20
2022-09-05T12:11:18.196Z,1.20
2022-09-05T12:13:51.236Z,1.63
2022-09-05T12:16:38.246Z,1.38
2022-09-05T12:19:22.732Z,1.45
2022-09-05T12:22:16.508Z,1.35
2022-09-05T12:27:36.777Z,1.42
2022-09-05T12:29:28.142Z,1.30
2022-09-05T12:32:19.541Z,1.30
2022-09-05T12:36:07.147Z,1.50
2022-09-05T12:40:16.646Z,1.25
2022-09-05T12:40:59.551Z,1.40
2022-09-05T12:42:56.161Z,1.40
2022-09-05T12:45:50.330Z,1.30
2022-09-05T12:48:39.348Z,1.50
2022-09-05T12:51:14.413Z,1.40
2022-09-05T12:54:09.386Z,1.20
2022-09-05T13:02:55.635Z,1.50
2022-09-05T13:03:04.283Z,1.30
2022-09-05T13:03:07.760Z,1.33
2022-09-05T13:05:52.158Z,1.30
2022-09-05T13:08:27.819Z,1.52
2022-09-05T13:14:49.232Z,1.40
2022-09-05T13:15:01.689Z,1.38
2022-09-05T13:16:48.372Z,1.30
2022-09-05T13:19:31.176Z,1.17
2022-09-05T13:22:02.028Z,1.40
2022-09-05T13:24:38.622Z,1.48
2022-09-05T13:27:13.849Z,1.40
2022-09-05T13:31:56.334Z,1.50
2022-09-05T13:37:58.358Z,1.20
2022-09-05T13:38:11.029Z,1.27
2022-09-05T13:38:48.566Z,1.20
2022-09-05T13:41:28.632Z,1.33
2022-09-05T13:44:25.524Z,1.30
2022-09-05T13:46:58.622Z,1.30
2022-09-05T13:49:33.360Z,1.20
2022-09-05T13:52:28.207Z,1.40
2022-09-05T13:55:10.125Z,1.35
2022-09-05T13:57:44.641Z,1.35
2022-09-05T14:00:51.629Z,1.30
2022-09-05T14:03:50.619Z,1.30
2022-09-05T14:06:47.108Z,1.30
2022-09-05T14:09:36.597Z,1.30
2022-09-05T14:12:11.820Z,1.40
2022-09-05T14:17:56.847Z,1.25
2022-09-05T14:20:49.480Z,1.40
2022-09-05T14:23:19.931Z,1.23
2022-09-05T14:25:55.024Z,1.30
2022-09-05T14:28:28.230Z,1.40
2022-09-05T14:33:01.072Z,1.40
2022-09-05T14:37:42.860Z,1.30
2022-09-05T14:37:51.223Z,1.20
2022-09-05T14:40:29.848Z,1.30
2022-09-05T14:43:30.881Z,1.20
2022-09-05T14:46:17.685Z,1.10
2022-09-05T14:49:10.865Z,1.20
2022-09-05T14:51:47.232Z,1.17
2022-09-05T15:00:17.298Z,1.20
2022-09-05T15:02:50.349Z,1.17
2022-09-05T15:03:05.980Z,1.25
2022-09-05T15:05:41.584Z,1.20
2022-09-05T15:08:22.738Z,1.25
2022-09-05T15:12:21.502Z,1.30
2022-09-05T15:13:58.356Z,1.20
2022-09-05T15:16:27.070Z,1.20
2022-09-05T15:18:58.493Z,1.40
2022-09-05T15:21:33.691Z,1.40
2022-09-05T15:24:13.575Z,1.40
2022-09-05T15:26:52.856Z,1.30
2022-09-05T15:29:25.487Z,1.10
2022-09-05T15:32:08.922Z,1.30
2022-09-05T15:34:40.986Z,1.40
2022-09-05T15:37:29.819Z,1.23
2022-09-05T15:40:23.373Z,1.10
2022-09-05T15:42:56.252Z,1.15
2022-09-05T15:45:28.271Z,1.10
2022-09-05T15:48:08.883Z,1.00
2022-09-05T15:50:45.059Z,0.90
2022-09-05T15:53:22.276Z,1.10
2022-09-05T15:55:56.392Z,1.10
2022-09-05T15:58:52.369Z,1.10
2022-09-05T16:01:30.418Z,1.20
2022-09-05T16:10:30.137Z,1.20
2022-09-05T16:10:42.368Z,1.00
2022-09-05T16:10:47.147Z,1.15
2022-09-05T16:12:47.352Z,1.10
2022-09-05T16:19:38.954Z,1.00
2022-09-05T16:23:18.432Z,1.30
2022-09-05T16:23:24.619Z,1.20
2022-09-05T16:24:04.923Z,1.23
2022-09-05T16:26:37.392Z,1.40
2022-09-05T16:29:11.612Z,1.60
2022-09-05T16:31:45.260Z,1.15
2022-09-05T16:34:23.400Z,1.30
2022-09-05T16:37:08.167Z,1.20
2022-09-05T16:39:43.803Z,1.27
2022-09-05T16:42:18.700Z,1.30
2022-09-05T16:44:53.859Z,1.40
2022-09-05T16:47:29.215Z,1.35
2022-09-05T16:50:05.129Z,1.35
2022-09-05T16:52:54.201Z,1.20
2022-09-05T16:55:33.233Z,1.30
2022-09-05T16:58:14.245Z,1.15
2022-09-05T17:00:53.421Z,1.23
2022-09-05T17:03:28.282Z,1.30
2022-09-05T17:06:07.885Z,1.40
2022-09-05T17:08:37.651Z,1.40
2022-09-05T17:11:13.829Z,1.25
2022-09-05T17:16:40.756Z,1.27
2022-09-05T17:19:22.246Z,1.42
2022-09-05T17:25:16.865Z,1.45
2022-09-05T17:29:20.173Z,1.40
2022-09-05T17:29:36.338Z,1.50
